Cable, Illinois
Current Conditions -  °F | °C
As of 10:52 PM on Monday 20 Oct 2014 (Local Time) from KMLI Reporting Station
Clear Clear  
Wind Chill: 46°   Ceiling: Unl
Heat Index: 46°   Visibility: 10mi
Dew Point: 41°   Wind: 3mph
Humidity: 83%   Direction: 140°SE
Pressure: 30.03"   Gusts: NA
Location:  41.2864°N, 90.4945°W
Report Text: KMLI 210352Z AUTO 14003KT 10SM CLR 08/05 A3003 RMK AO2 SLP169 T00780050
Loading
Personal Weather Stations






























Interactive Weather Map
Tropical Storm Tracking
New forecast layout! Learn more

10-Day Weather Forecast

Advertisements
Track Severe Weather on mobile